DAAG/ALG METAR and TAF weather

Enter ICAO airport designator
Station Type Date Time Source
DAAG METAR 2019/12/13 22:30 UTC NOAA

DAAG 132230Z 27009KT 230V300 9999 FEW020 SCT200 16/09 Q1016


Station Type Date Time Source
DAAG Decoded METAR 2019/12/13 22:30 UTC NOAA

Dar-El-Beida, Algeria (DAAG) 36-43N 003-15E 25M
Dec 13, 2019 - 05:30 PM EST / 2019.12.13 2230 UTC
Wind: from the W (270 degrees) at 10 MPH (9 KT) (direction variable):0
Visibility: greater than 7 mile(s):0
Sky conditions: partly cloudy
Temperature: 60 F (16 C)
Dew Point: 48 F (9 C)
Relative Humidity: 63%
Pressure (altimeter): 30.00 in. Hg (1016 hPa)
ob: DAAG 132230Z 27009KT 230V300 9999 FEW020 SCT200 16/09 Q1016
cycle: 22

Station Type Date Time Source
DAAG TAF 2019/12/13 18:41 UTC NOAA

TAF DAAG 131700Z 1318/1418 27010KT 9999 FEW026 SCT100 PROB30
TEMPO 1318/1322 27020G30KT FEW023TCU

Example: see airport list